Time;durP1;ratioP1;P1;durP2;ratioP2;P2;SDS_P1;SDS_P2;PMS_P1;PMS_P2;Temp;Humidity;BMP_temperature;BMP_pressure;BME280_temperature;BME280_humidity;BME280_pressure;Samples;Min_cycle;Max_cycle;Signal;HPM_P1;HPM_P2
2022/07/07 00:00:32;;;;;;;9.57;1.97;;;;;;;12.89;94.42;100135.81;4182979;28;25546;-63
2022/07/07 00:02:58;;;;;;;5.20;2.00;;;;;;;12.89;94.35;100135.81;4216729;28;20244;-65
2022/07/07 00:05:25;;;;;;;4.27;1.80;;;;;;;12.99;94.25;100141.81;4196169;28;20344;-64
2022/07/07 00:07:52;;;;;;;4.77;1.60;;;;;;;13.09;93.71;100139.81;4202860;28;20334;-63
2022/07/07 00:10:18;;;;;;;3.63;1.87;;;;;;;13.11;93.06;100142.34;4209135;28;20272;-65
2022/07/07 00:12:45;;;;;;;4.70;1.80;;;;;;;13.06;92.59;100137.50;4205664;28;20236;-64
2022/07/07 00:15:12;;;;;;;4.80;1.50;;;;;;;13.05;92.91;100135.81;4197463;28;20320;-66
2022/07/07 00:17:39;;;;;;;4.63;1.80;;;;;;;13.05;92.60;100135.00;4201637;28;20232;-64
2022/07/07 00:20:06;;;;;;;5.17;1.60;;;;;;;13.09;92.58;100134.47;4206820;28;25718;-64
2022/07/07 00:22:32;;;;;;;3.07;1.67;;;;;;;13.10;92.23;100132.63;4207346;28;20241;-63
2022/07/07 00:24:59;;;;;;;5.20;1.70;;;;;;;13.21;91.84;100129.63;4203268;28;20239;-65
2022/07/07 00:27:25;;;;;;;2.80;1.40;;;;;;;13.18;93.04;100126.44;4211030;28;20656;-65
2022/07/07 00:29:52;;;;;;;2.90;1.50;;;;;;;13.22;92.51;100130.44;4205345;28;21142;-64
2022/07/07 00:32:18;;;;;;;2.97;1.27;;;;;;;13.21;92.84;100132.28;4203738;28;20871;-64
2022/07/07 00:34:45;;;;;;;5.13;1.53;;;;;;;13.29;92.25;100136.81;4191229;28;21910;-64
2022/07/07 00:37:11;;;;;;;6.30;1.60;;;;;;;13.30;92.90;100139.31;4201821;28;20284;-65
2022/07/07 00:39:39;;;;;;;3.60;1.67;;;;;;;13.31;93.11;100134.81;4215253;28;20233;-64
2022/07/07 00:42:05;;;;;;;4.03;1.50;;;;;;;13.31;92.66;100140.16;4206389;28;20237;-65
2022/07/07 00:44:32;;;;;;;4.57;1.70;;;;;;;13.25;92.51;100141.66;4205799;28;21086;-64
2022/07/07 00:46:58;;;;;;;3.83;1.40;;;;;;;13.20;93.47;100137.78;4204219;28;20766;-64
2022/07/07 00:49:25;;;;;;;5.60;1.50;;;;;;;13.22;92.72;100136.63;4200323;28;20245;-64
2022/07/07 00:51:52;;;;;;;8.77;1.67;;;;;;;13.17;93.96;100138.16;4201991;28;21301;-64
2022/07/07 00:54:19;;;;;;;4.77;1.80;;;;;;;13.14;94.04;100133.16;4198222;28;20280;-47
2022/07/07 00:56:46;;;;;;;4.70;1.70;;;;;;;13.19;94.81;100136.13;4204173;28;20241;-45
2022/07/07 00:59:30;;;;;;;4.87;1.73;;;;;;;13.25;93.80;100132.78;4205851;28;22208;-46
2022/07/07 01:01:59;;;;;;;5.83;1.60;;;;;;;13.19;94.34;100131.63;4204350;28;22358;-47
2022/07/07 01:04:26;;;;;;;4.23;1.70;;;;;;;13.30;94.50;100131.31;4198048;28;20623;-46
2022/07/07 01:06:52;;;;;;;6.20;2.20;;;;;;;13.34;93.91;100141.66;4206551;28;21921;-41
2022/07/07 01:09:19;;;;;;;4.13;1.93;;;;;;;13.31;93.77;100140.16;4204899;28;20296;-64
2022/07/07 01:11:52;;;;;;;3.57;1.67;;;;;;;13.33;93.56;100137.31;4200619;28;21161;-64
2022/07/07 01:14:19;;;;;;;5.30;1.87;;;;;;;13.31;93.45;100140.16;4207066;28;20236;-64
2022/07/07 01:16:46;;;;;;;3.03;1.80;;;;;;;13.26;94.01;100137.13;4210343;28;21579;-67
2022/07/07 01:19:13;;;;;;;8.77;1.83;;;;;;;13.10;94.71;100137.97;4198355;28;20236;-65
2022/07/07 01:21:53;;;;;;;6.23;2.07;;;;;;;13.05;95.61;100126.97;4198817;28;20598;-64
2022/07/07 01:24:21;;;;;;;3.73;1.90;;;;;;;12.90;95.31;100126.81;4200829;28;20663;-64
2022/07/07 01:26:48;;;;;;;5.67;1.80;;;;;;;12.99;95.29;100128.47;4201128;28;20248;-64
2022/07/07 01:29:14;;;;;;;9.07;2.03;;;;;;;13.07;95.93;100138.31;4200574;28;21703;-65
2022/07/07 01:31:41;;;;;;;8.33;1.83;;;;;;;13.09;95.46;100137.16;4206478;28;20334;-65
2022/07/07 01:34:08;;;;;;;4.67;1.90;;;;;;;13.08;95.45;100139.97;4205613;28;20241;-64
2022/07/07 01:36:34;;;;;;;4.80;1.70;;;;;;;13.13;95.29;100139.47;4205826;28;21701;-64
2022/07/07 01:39:01;;;;;;;7.23;2.13;;;;;;;13.11;95.31;100139.66;4199167;28;20344;-65
2022/07/07 01:41:27;;;;;;;4.53;1.50;;;;;;;12.92;95.40;100140.00;4201490;28;20471;-65
2022/07/07 01:43:54;;;;;;;6.50;2.17;;;;;;;12.93;96.36;100139.84;4197124;28;20241;-64
2022/07/07 01:46:20;;;;;;;6.00;2.03;;;;;;;12.99;95.57;100131.13;4205492;28;20291;-67
2022/07/07 01:48:47;;;;;;;6.10;1.50;;;;;;;12.96;95.25;100136.00;4203060;28;20233;-64
2022/07/07 01:51:13;;;;;;;2.60;1.63;;;;;;;13.02;94.60;100130.81;4210508;28;20243;-63
2022/07/07 01:53:40;;;;;;;4.97;2.00;;;;;;;13.03;95.02;100131.66;4198572;28;20244;-63
2022/07/07 01:56:07;;;;;;;5.67;2.00;;;;;;;12.97;95.03;100130.50;4213610;28;20655;-64
2022/07/07 01:58:33;;;;;;;4.73;1.77;;;;;;;12.96;94.95;100134.16;4205574;28;20244;-64
2022/07/07 02:01:00;;;;;;;7.00;2.00;;;;;;;12.89;94.95;100131.31;4201816;28;20236;-64
2022/07/07 02:03:26;;;;;;;4.20;1.83;;;;;;;13.01;94.86;100131.81;4202587;28;20840;-64
2022/07/07 02:05:53;;;;;;;3.60;1.63;;;;;;;12.89;94.59;100136.66;4205575;28;20238;-66
2022/07/07 02:08:20;;;;;;;4.53;1.40;;;;;;;12.90;95.12;100137.50;4201298;28;20241;-65
2022/07/07 02:13:32;;;;;;;6.53;1.40;;;;;;;12.92;95.64;100132.81;4202986;28;20229;-66
2022/07/07 02:15:59;;;;;;;4.00;1.60;;;;;;;12.97;95.15;100130.50;4204775;28;20248;-65
2022/07/07 02:18:25;;;;;;;5.60;1.60;;;;;;;13.06;94.88;100129.50;4199640;28;21822;-67
2022/07/07 02:20:52;;;;;;;5.80;1.50;;;;;;;13.04;94.42;100128.81;4213140;28;20400;-64
2022/07/07 02:23:18;;;;;;;6.13;1.90;;;;;;;13.06;95.01;100132.16;4204735;28;20257;-64
2022/07/07 02:25:45;;;;;;;3.30;1.40;;;;;;;13.11;94.60;100137.00;4200203;28;20237;-63
2022/07/07 02:28:12;;;;;;;6.93;1.93;;;;;;;13.06;94.78;100129.50;4197069;28;20236;-64
2022/07/07 02:30:38;;;;;;;4.67;1.67;;;;;;;13.03;95.18;100127.13;4204367;28;20409;-62
2022/07/07 02:33:06;;;;;;;6.77;2.03;;;;;;;13.07;95.06;100135.66;4202627;28;22337;-66
2022/07/07 02:35:33;;;;;;;7.87;1.70;;;;;;;13.11;95.30;100134.31;4203837;28;20620;-66
2022/07/07 02:37:59;;;;;;;3.10;1.57;;;;;;;13.09;94.68;100134.47;4212275;28;20236;-65
2022/07/07 02:40:26;;;;;;;5.17;1.77;;;;;;;13.12;94.14;100137.81;4205186;28;20229;-65
2022/07/07 02:42:54;;;;;;;6.60;1.80;;;;;;;13.12;94.85;100132.47;4204095;28;20236;-65
2022/07/07 02:45:21;;;;;;;8.07;1.40;;;;;;;12.96;95.17;100136.00;4205479;28;20287;-64
2022/07/07 02:47:47;;;;;;;5.47;1.60;;;;;;;13.08;95.51;100134.63;4207863;28;20633;-64
2022/07/07 02:50:14;;;;;;;2.90;1.53;;;;;;;13.07;94.58;100136.47;4209129;28;20245;-65
2022/07/07 02:52:40;;;;;;;4.83;1.90;;;;;;;13.11;94.47;100131.66;4197670;28;22929;-66
2022/07/07 02:55:08;;;;;;;5.13;1.60;;;;;;;13.10;94.75;100133.47;4206686;28;22071;-66
2022/07/07 02:57:34;;;;;;;3.97;1.67;;;;;;;13.19;94.06;100130.81;4201722;28;20241;-66
2022/07/07 03:00:08;;;;;;;4.50;1.77;;;;;;;13.23;93.87;100132.97;4189435;28;21071;-64
2022/07/07 03:02:35;;;;;;;7.70;2.50;;;;;;;13.25;93.61;100135.44;4197797;28;20243;-64
2022/07/07 03:05:01;;;;;;;5.07;2.20;;;;;;;13.29;93.58;100134.97;4203474;28;20269;-64
2022/07/07 03:07:28;;;;;;;7.23;2.30;;;;;;;13.23;94.42;100134.81;4202054;28;20234;-63
2022/07/07 03:09:54;;;;;;;6.20;2.60;;;;;;;13.26;94.67;100132.63;4180253;28;20227;-64
2022/07/07 03:12:21;;;;;;;7.33;2.80;;;;;;;13.25;95.08;100136.31;4205376;28;20672;-65
2022/07/07 03:14:47;;;;;;;11.60;2.90;;;;;;;13.06;96.52;100132.16;4205781;28;20290;-62
2022/07/07 03:17:14;;;;;;;11.97;3.40;;;;;;;13.19;96.81;100130.81;4214024;28;21050;-64
2022/07/07 03:19:41;;;;;;;5.43;2.97;;;;;;;13.26;96.25;100137.13;4219122;28;20251;-64
2022/07/07 03:22:07;;;;;;;4.73;3.00;;;;;;;13.15;96.80;100130.28;4185650;28;20244;-67
2022/07/07 03:24:34;;;;;;;7.50;3.50;;;;;;;13.12;97.38;100129.81;4193730;28;20242;-64
2022/07/07 03:27:00;;;;;;;10.30;3.20;;;;;;;13.17;97.81;100133.63;4198870;28;20594;-66
2022/07/07 03:29:27;;;;;;;4.63;3.07;;;;;;;13.27;96.92;100133.44;4203905;28;20614;-64
2022/07/07 03:31:54;;;;;;;6.83;3.43;;;;;;;13.27;97.53;100136.13;4187855;28;22062;-63
2022/07/07 03:34:20;;;;;;;12.77;3.30;;;;;;;13.20;97.90;100133.28;4208226;28;20554;-65
2022/07/07 03:36:47;;;;;;;8.13;3.30;;;;;;;13.23;97.82;100132.13;4206184;28;20710;-64
2022/07/07 03:39:14;;;;;;;4.40;3.10;;;;;;;13.41;97.88;100135.44;4185742;28;20314;-64
2022/07/07 03:41:40;;;;;;;9.73;3.23;;;;;;;13.39;97.23;100142.81;4188361;28;23434;-64
2022/07/07 03:44:07;;;;;;;6.37;3.10;;;;;;;13.43;98.02;100132.59;4205436;28;22420;-63
2022/07/07 03:46:34;;;;;;;8.13;3.60;;;;;;;13.36;98.03;100132.44;4191247;28;21299;-63
2022/07/07 03:49:00;;;;;;;7.17;3.37;;;;;;;13.49;97.51;100137.28;4196769;28;20323;-66
2022/07/07 03:51:27;;;;;;;5.83;3.17;;;;;;;13.63;97.04;100135.75;4180762;28;20240;-65
2022/07/07 03:53:53;;;;;;;7.20;3.40;;;;;;;13.58;96.77;100136.25;4201158;28;20248;-64
2022/07/07 03:56:20;;;;;;;5.37;2.90;;;;;;;13.64;96.16;100129.38;4164442;28;21420;-65
2022/07/07 03:58:47;;;;;;;6.90;3.07;;;;;;;13.78;95.80;100134.00;4201616;28;20247;-66
2022/07/07 04:01:13;;;;;;;11.10;3.13;;;;;;;13.85;95.02;100137.66;4193281;28;20304;-65
2022/07/07 04:03:40;;;;;;;9.80;3.37;;;;;;;13.92;94.67;100127.91;4180802;28;20250;-66
2022/07/07 04:06:06;;;;;;;7.63;3.43;;;;;;;13.96;94.80;100139.13;4192537;28;20233;-64
2022/07/07 04:08:33;;;;;;;8.23;3.20;;;;;;;14.13;94.69;100140.69;4173603;28;20260;-67
2022/07/07 04:11:00;;;;;;;5.60;2.87;;;;;;;14.16;93.97;100142.19;4191741;28;21580;-64
2022/07/07 04:13:26;;;;;;;9.80;3.10;;;;;;;14.08;93.69;100144.91;4194660;28;20233;-63
2022/07/07 04:15:55;;;;;;;7.47;2.67;;;;;;;14.20;93.67;100138.16;4198674;28;20249;-64
2022/07/07 04:18:22;;;;;;;5.17;2.50;;;;;;;14.24;93.03;100131.44;4189266;28;20236;-64
2022/07/07 04:20:49;;;;;;;4.37;2.63;;;;;;;14.21;93.00;100131.81;4207453;28;20415;-66
2022/07/07 04:23:16;;;;;;;8.07;2.70;;;;;;;14.24;92.46;100136.78;4196579;28;20602;-64
2022/07/07 04:25:42;;;;;;;5.17;2.83;;;;;;;14.32;91.58;100128.69;4188025;28;20233;-65
2022/07/07 04:28:09;;;;;;;6.97;3.07;;;;;;;14.44;91.41;100137.16;4191260;28;20233;-65
2022/07/07 04:30:35;;;;;;;8.73;2.67;;;;;;;14.49;91.10;100133.94;4205523;28;20239;-64
2022/07/07 04:33:02;;;;;;;13.47;2.90;;;;;;;14.64;90.22;100132.22;4196669;28;22898;-65
2022/07/07 04:35:29;;;;;;;7.80;2.40;;;;;;;14.73;89.82;100135.66;4191467;28;20420;-64
2022/07/07 04:37:55;;;;;;;12.70;2.83;;;;;;;14.87;89.39;100129.53;4184276;28;20254;-64
2022/07/07 04:40:22;;;;;;;4.97;2.43;;;;;;;14.88;88.33;100125.81;4192065;28;25364;-64
2022/07/07 04:42:48;;;;;;;7.10;2.67;;;;;;;15.03;nan;100123.19;4191811;28;20301;-63
2022/07/07 04:45:15;;;;;;;5.30;2.37;;;;;;;15.02;86.26;100131.41;4197606;28;20247;-63
2022/07/07 04:47:42;;;;;;;7.37;2.60;;;;;;;14.98;85.16;100113.00;4186397;28;21238;-64
2022/07/07 04:50:10;;;;;;;7.57;2.67;;;;;;;14.93;85.97;100126.09;4185083;28;20452;-64
2022/07/07 04:52:37;;;;;;;5.53;2.37;;;;;;;15.33;85.35;100124.03;4190117;28;20486;-64
2022/07/07 04:55:04;;;;;;;5.10;2.40;;;;;;;15.50;84.17;100129.22;4194809;28;20648;-64
2022/07/07 04:57:31;;;;;;;13.00;4.13;;;;;;;15.72;82.68;100135.56;4206506;28;23043;-66
2022/07/07 04:59:58;;;;;;;10.50;2.67;;;;;;;15.56;82.93;100126.66;4206678;28;20228;-65
2022/07/07 05:02:25;;;;;;;9.23;2.40;;;;;;;15.48;83.27;100128.59;4192506;28;20316;-66
2022/07/07 05:04:51;;;;;;;8.80;2.37;;;;;;;15.68;82.32;100124.31;4208237;28;20243;-68
2022/07/07 05:07:19;;;;;;;8.90;2.83;;;;;;;15.83;80.92;100132.41;4213904;28;22325;-64
2022/07/07 05:09:45;;;;;;;6.60;2.33;;;;;;;15.90;81.29;100127.97;4193950;28;20907;-63
2022/07/07 05:12:12;;;;;;;16.93;2.47;;;;;;;15.89;81.27;100130.81;4205757;28;20675;-65
2022/07/07 05:14:39;;;;;;;5.20;2.43;;;;;;;15.67;82.51;100125.34;4205506;28;21189;-66
2022/07/07 05:17:05;;;;;;;9.73;2.63;;;;;;;15.72;81.30;100124.84;4200275;28;20237;-65
2022/07/07 05:19:32;;;;;;;6.90;2.30;;;;;;;15.76;82.90;100131.50;4208326;28;20237;-64
2022/07/07 05:21:58;;;;;;;6.50;2.53;;;;;;;15.68;83.65;100124.31;4208840;28;21040;-65
2022/07/07 05:24:25;;;;;;;9.20;2.63;;;;;;;15.82;82.75;100133.41;4209740;28;20316;-64
2022/07/07 05:26:51;;;;;;;4.83;2.67;;;;;;;15.79;82.02;100125.75;4199644;28;21152;-64
2022/07/07 05:29:18;;;;;;;7.17;1.90;;;;;;;15.96;80.33;100132.56;4208095;28;25949;-63
2022/07/07 05:31:45;;;;;;;4.03;1.80;;;;;;;16.00;79.59;100128.50;4209469;28;20446;-65
2022/07/07 05:34:11;;;;;;;11.33;2.13;;;;;;;15.95;80.08;100130.91;4204888;28;20303;-64
2022/07/07 05:36:37;;;;;;;14.67;3.90;;;;;;;16.18;79.33;100129.94;4206057;28;20233;-65
2022/07/07 05:39:04;;;;;;;7.33;2.10;;;;;;;16.17;78.17;100129.09;4208071;28;21732;-65
2022/07/07 05:41:31;;;;;;;4.53;1.90;;;;;;;16.41;77.20;100129.75;4200450;28;20237;-67
2022/07/07 05:43:57;;;;;;;3.63;1.87;;;;;;;16.59;77.23;100127.47;4206323;28;20244;-66
2022/07/07 05:46:24;;;;;;;7.87;2.13;;;;;;;16.68;77.14;100126.31;4207492;28;20243;-64
2022/07/07 05:48:51;;;;;;;6.93;2.40;;;;;;;16.58;75.54;100125.00;4205244;28;20236;-64
2022/07/07 05:51:17;;;;;;;5.17;1.97;;;;;;;16.63;75.42;100127.94;4192189;28;20237;-65
2022/07/07 05:53:44;;;;;;;5.17;2.47;;;;;;;16.83;74.09;100131.69;4207148;28;20711;-64
2022/07/07 05:56:10;;;;;;;6.60;1.90;;;;;;;17.19;70.83;100137.97;4199327;28;20335;-64
2022/07/07 05:58:37;;;;;;;4.03;1.87;;;;;;;17.39;70.24;100133.53;4187648;28;20288;-63
2022/07/07 06:01:04;;;;;;;3.63;1.53;;;;;;;17.58;68.50;100134.69;4205260;28;20419;-65
2022/07/07 06:03:31;;;;;;;4.07;1.80;;;;;;;17.75;67.05;100139.72;4206194;28;20284;-65
2022/07/07 06:05:59;;;;;;;9.20;1.80;;;;;;;17.96;66.24;100141.53;4187427;28;20311;-65
2022/07/07 06:08:28;;;;;;;6.10;1.83;;;;;;;18.23;64.95;100147.84;4185341;28;20371;-63
2022/07/07 06:10:54;;;;;;;7.43;1.50;;;;;;;18.26;63.47;100150.13;4195790;28;21945;-65
2022/07/07 06:13:21;;;;;;;6.03;1.80;;;;;;;18.14;63.53;100145.34;4192761;28;20236;-66
2022/07/07 06:15:48;;;;;;;7.73;1.33;;;;;;;18.14;65.07;100144.50;4196734;28;22820;-65
2022/07/07 06:18:15;;;;;;;5.17;1.30;;;;;;;17.85;66.02;100142.94;4199902;28;20327;-63
2022/07/07 06:20:41;;;;;;;8.43;1.53;;;;;;;17.79;65.41;100139.13;4191368;28;20246;-63
2022/07/07 06:23:09;;;;;;;3.50;1.57;;;;;;;17.90;65.71;100149.38;4185839;28;20238;-67
2022/07/07 06:25:36;;;;;;;5.67;1.50;;;;;;;18.27;65.81;100151.81;4202426;28;20431;-66
2022/07/07 06:28:03;;;;;;;5.20;1.50;;;;;;;18.18;64.10;100153.84;4185674;28;20440;-64
2022/07/07 06:30:30;;;;;;;6.97;1.53;;;;;;;18.20;61.85;100151.78;4190691;28;20386;-63
2022/07/07 06:32:56;;;;;;;6.63;1.20;;;;;;;17.81;62.66;100139.81;4188522;28;20320;-62
2022/07/07 06:35:24;;;;;;;5.00;1.13;;;;;;;18.16;62.85;100145.13;4189194;28;20238;-81
2022/07/07 06:37:53;;;;;;;7.63;1.17;;;;;;;18.07;62.39;100146.34;4203522;28;20221;-80
2022/07/07 06:40:20;;;;;;;7.50;1.30;;;;;;;18.35;62.36;100146.22;4195611;28;20275;-79
2022/07/07 06:42:47;;;;;;;7.07;1.43;;;;;;;18.80;61.40;100146.56;4193101;28;21752;-80
2022/07/07 06:45:14;;;;;;;5.87;1.50;;;;;;;18.84;61.33;100139.72;4198959;28;22901;-70
2022/07/07 06:47:40;;;;;;;4.07;1.53;;;;;;;19.19;60.57;100143.03;4175334;28;21027;-73
2022/07/07 06:50:07;;;;;;;4.13;1.07;;;;;;;19.42;57.99;100143.66;4199389;28;21734;-73
2022/07/07 06:52:34;;;;;;;8.37;1.20;;;;;;;19.03;57.07;100146.16;4190725;28;20436;-75
2022/07/07 06:55:01;;;;;;;4.33;1.00;;;;;;;19.48;56.13;100142.78;4192260;28;22139;-74
2022/07/07 06:57:32;;;;;;;3.30;1.03;;;;;;;19.50;54.14;100140.72;4194008;28;21584;-64
2022/07/07 06:59:59;;;;;;;4.00;1.07;;;;;;;19.71;53.39;100148.56;4201674;28;20304;-67
2022/07/07 07:02:26;;;;;;;3.07;0.93;;;;;;;20.26;52.57;100148.16;4192408;28;21689;-67
2022/07/07 07:04:52;;;;;;;6.50;1.40;;;;;;;20.45;50.72;100149.94;4210982;28;23528;-66
2022/07/07 07:07:19;;;;;;;4.40;1.17;;;;;;;21.13;49.55;100156.56;4236407;28;20236;-77
2022/07/07 07:09:46;;;;;;;5.97;1.23;;;;;;;20.48;51.02;100148.66;4223171;28;21133;-74
2022/07/07 07:12:12;;;;;;;6.03;1.00;;;;;;;20.35;51.48;100148.75;4217198;28;22571;-74
2022/07/07 07:14:39;;;;;;;4.30;0.97;;;;;;;20.43;51.97;100140.38;4223922;28;23915;-79
2022/07/07 07:17:06;;;;;;;7.37;1.37;;;;;;;20.31;50.65;100142.13;4205173;28;20236;-73
2022/07/07 07:19:33;;;;;;;8.47;1.60;;;;;;;20.28;49.90;100145.25;4204171;28;20236;-76
2022/07/07 07:22:00;;;;;;;4.83;1.30;;;;;;;20.09;50.39;100139.75;4209803;28;20330;-69
2022/07/07 07:24:26;;;;;;;4.17;1.30;;;;;;;20.33;50.18;100130.03;4241584;28;20611;-82
2022/07/07 07:26:53;;;;;;;3.87;1.50;;;;;;;20.83;48.35;100146.38;4229583;28;20432;-75
2022/07/07 07:29:20;;;;;;;6.03;1.70;;;;;;;20.90;49.28;100131.97;4229274;28;22892;-73
2022/07/07 07:31:47;;;;;;;4.03;1.20;;;;;;;20.32;50.13;100133.81;4239146;28;21031;-73
2022/07/07 07:34:14;;;;;;;7.13;1.27;;;;;;;20.44;50.21;100137.47;4247596;28;20307;-70
2022/07/07 07:36:40;;;;;;;5.97;1.30;;;;;;;20.69;47.96;100135.88;4225964;28;21585;-74
2022/07/07 07:39:07;;;;;;;6.70;1.20;;;;;;;20.95;48.14;100138.38;4249059;28;20974;-82
2022/07/07 07:41:34;;;;;;;8.27;1.10;;;;;;;21.14;46.68;100139.28;4333659;28;22995;-65
2022/07/07 07:44:00;;;;;;;6.07;1.37;;;;;;;21.55;45.27;100142.47;4228011;28;20279;-66
2022/07/07 07:46:27;;;;;;;3.47;0.90;;;;;;;21.93;45.25;100142.22;4267863;28;21591;-65
2022/07/07 07:48:54;;;;;;;10.03;1.40;;;;;;;22.02;43.64;100143.56;4241557;28;21311;-66
2022/07/07 07:51:20;;;;;;;6.00;1.50;;;;;;;22.24;43.14;100146.69;4230510;28;20779;-66
2022/07/07 07:53:47;;;;;;;6.73;1.37;;;;;;;22.24;44.26;100146.69;4212062;28;20240;-65
2022/07/07 07:56:14;;;;;;;3.20;1.10;;;;;;;22.09;42.72;100143.50;4232665;28;23158;-68
2022/07/07 07:58:41;;;;;;;2.47;0.90;;;;;;;21.80;43.58;100140.53;4219600;28;20241;-67
2022/07/07 08:01:07;;;;;;;5.07;0.93;;;;;;;21.57;44.78;100137.66;4206711;28;21800;-66
2022/07/07 08:03:34;;;;;;;5.77;0.90;;;;;;;21.65;44.37;100134.63;4200579;28;20236;-68
2022/07/07 08:06:02;;;;;;;10.73;1.10;;;;;;;21.92;44.21;100138.69;4210358;28;20307;-67
2022/07/07 08:08:28;;;;;;;7.43;1.30;;;;;;;21.76;44.71;100133.06;4211072;28;23636;-65
2022/07/07 08:10:55;;;;;;;4.10;0.73;;;;;;;21.18;46.27;100126.13;4199201;28;22488;-67
2022/07/07 08:13:22;;;;;;;1.60;0.73;;;;;;;20.65;46.24;100130.94;4214510;28;20241;-67
2022/07/07 08:15:48;;;;;;;4.17;0.70;;;;;;;20.30;47.52;100132.34;4213348;28;20570;-64
2022/07/07 08:18:15;;;;;;;1.47;0.70;;;;;;;20.06;48.08;100134.75;4209217;28;20281;-64
2022/07/07 08:20:42;;;;;;;5.47;0.80;;;;;;;20.43;48.96;100130.38;4202726;28;20683;-67
2022/07/07 08:23:09;;;;;;;5.87;1.00;;;;;;;20.79;47.17;100130.81;4212756;28;20236;-66
2022/07/07 08:25:36;;;;;;;6.60;0.87;;;;;;;20.75;45.90;100137.72;4207002;28;20240;-66
2022/07/07 08:28:03;;;;;;;1.67;0.53;;;;;;;20.50;48.16;100133.06;4205887;28;20236;-65
2022/07/07 08:30:29;;;;;;;3.50;0.80;;;;;;;20.74;48.24;100136.06;4196269;28;20754;-69
2022/07/07 08:32:56;;;;;;;2.17;0.90;;;;;;;20.76;47.07;100144.78;4192088;28;21119;-68
2022/07/07 08:35:23;;;;;;;2.47;0.90;;;;;;;20.81;46.83;100137.69;4191676;28;21601;-69
2022/07/07 08:37:49;;;;;;;7.07;3.63;;;;;;;21.30;44.66;100135.16;4198361;28;20307;-68
2022/07/07 08:40:16;;;;;;;2.90;0.77;;;;;;;21.17;47.14;100135.31;4247323;28;20255;-74
2022/07/07 08:42:43;;;;;;;5.00;0.80;;;;;;;21.39;45.94;100131.13;4208321;28;20241;-51
2022/07/07 08:45:10;;;;;;;2.13;0.67;;;;;;;20.89;43.68;100133.88;4201761;28;20240;-56
2022/07/07 08:47:37;;;;;;;5.00;0.80;;;;;;;20.98;44.94;100129.03;4191590;28;20237;-71
2022/07/07 08:50:12;;;;;;;4.33;0.83;;;;;;;21.15;44.96;100132.00;4183280;28;21615;-73
2022/07/07 08:52:40;;;;;;;2.83;0.90;;;;;;;20.73;45.36;100129.00;4193103;28;20233;-74
2022/07/07 08:55:07;;;;;;;1.70;0.60;;;;;;;21.00;46.82;100133.16;4210078;28;20550;-73
2022/07/07 08:57:34;;;;;;;3.83;0.77;;;;;;;20.58;47.66;100132.00;4214730;28;20234;-77
2022/07/07 09:00:00;;;;;;;3.20;0.93;;;;;;;21.12;46.56;100135.13;4208838;28;21024;-72
2022/07/07 09:02:27;;;;;;;3.77;0.87;;;;;;;21.53;42.39;100134.56;4207643;28;20333;-74
2022/07/07 09:04:54;;;;;;;3.53;0.87;;;;;;;21.22;43.60;100140.88;4196991;28;20572;-71
2022/07/07 09:07:21;;;;;;;4.43;0.87;;;;;;;21.35;42.99;100140.72;4210078;28;20241;-73
2022/07/07 09:09:52;;;;;;;3.83;0.80;;;;;;;21.58;41.30;100132.00;4226531;28;22545;-71
2022/07/07 09:12:20;;;;;;;2.40;0.67;;;;;;;21.81;39.80;100146.75;4210410;28;22032;-75
2022/07/07 09:14:49;;;;;;;1.50;0.50;;;;;;;21.46;43.37;100139.22;4200487;28;20428;-72
2022/07/07 09:17:16;;;;;;;5.80;0.80;;;;;;;21.17;43.12;100140.72;4201722;28;20237;-48
2022/07/07 09:19:43;;;;;;;1.03;0.50;;;;;;;20.72;43.99;100133.59;4227913;28;20294;-55
2022/07/07 09:22:11;;;;;;;4.47;0.87;;;;;;;20.57;44.46;100131.16;4206920;28;22387;-47
2022/07/07 09:24:55;;;;;;;2.67;0.70;;;;;;;20.43;44.12;100126.88;4230901;28;21141;-51
2022/07/07 09:27:22;;;;;;;1.30;0.67;;;;;;;20.76;43.68;100123.16;4195517;28;21234;-46
2022/07/07 09:29:49;;;;;;;4.03;0.53;;;;;;;20.92;43.82;100130.72;4211042;28;20900;-47
2022/07/07 09:32:15;;;;;;;5.20;0.90;;;;;;;20.93;43.06;100137.78;4202538;28;22356;-49
2022/07/07 09:34:42;;;;;;;2.80;0.97;;;;;;;20.89;45.00;100127.63;4204376;28;20233;-48
2022/07/07 09:39:56;;;;;;;7.53;2.97;;;;;;;20.40;46.49;100132.72;4225932;28;20300;-70
2022/07/07 09:42:36;;;;;;;4.80;1.80;;;;;;;20.10;48.29;100124.34;4210477;28;20228;-74
2022/07/07 09:45:09;;;;;;;4.70;1.40;;;;;;;20.03;48.26;100124.38;4236071;28;20805;-70
2022/07/07 09:47:36;;;;;;;5.87;1.43;;;;;;;20.41;49.80;100123.56;4200799;28;20861;-68
2022/07/07 09:50:11;;;;;;;4.33;0.87;;;;;;;20.45;47.13;100122.91;4190732;28;20245;-65
2022/07/07 09:52:45;;;;;;;2.70;1.03;;;;;;;20.19;45.73;100118.47;4184156;28;22163;-63
2022/07/07 09:55:12;;;;;;;3.73;1.03;;;;;;;20.32;47.73;100122.16;4205685;28;20312;-64
2022/07/07 09:57:40;;;;;;;7.20;1.00;;;;;;;20.70;44.07;100124.84;4198935;28;20252;-62
2022/07/07 10:00:07;;;;;;;3.27;0.80;;;;;;;20.84;43.15;100125.59;4207185;28;20232;-65
2022/07/07 10:02:36;;;;;;;2.50;1.00;;;;;;;21.05;45.71;100118.97;4173952;28;20350;-65
2022/07/07 10:05:05;;;;;;;4.57;0.87;;;;;;;21.55;44.02;100118.91;4196594;28;20685;-64
2022/07/07 10:07:34;;;;;;;4.60;0.97;;;;;;;21.66;41.39;100123.59;4203935;28;22278;-64
2022/07/07 10:10:08;;;;;;;4.57;1.10;;;;;;;21.44;43.18;100125.88;4201142;28;20284;-65
2022/07/07 10:12:43;;;;;;;2.57;0.70;;;;;;;21.76;42.65;100127.66;4204554;28;22515;-65
2022/07/07 10:15:13;;;;;;;3.20;0.70;;;;;;;22.29;39.62;100130.56;4210358;28;20960;-64
2022/07/07 10:17:40;;;;;;;5.17;1.27;;;;;;;22.24;38.53;100132.28;4193492;28;20243;-65
2022/07/07 10:20:08;;;;;;;2.13;0.60;;;;;;;22.12;40.05;100129.47;4196617;28;20225;-63
2022/07/07 10:22:35;;;;;;;2.27;0.70;;;;;;;21.84;39.86;100125.44;4204320;28;20768;-64
2022/07/07 10:25:05;;;;;;;3.13;0.67;;;;;;;21.48;40.58;100118.97;4210991;28;21361;-65
2022/07/07 10:27:33;;;;;;;3.33;0.73;;;;;;;21.29;41.88;100112.69;4197463;28;20342;-64
2022/07/07 10:30:04;;;;;;;3.80;0.73;;;;;;;21.64;40.42;100114.03;4199491;28;22997;-64
2022/07/07 10:32:33;;;;;;;5.07;0.80;;;;;;;21.78;39.60;100120.94;4204671;28;20518;-64
2022/07/07 10:35:13;;;;;;;2.13;0.80;;;;;;;21.85;39.03;100121.69;4190238;28;20285;-65
2022/07/07 10:37:43;;;;;;;3.30;0.80;;;;;;;21.95;39.81;100120.34;4204262;28;20282;-65
2022/07/07 10:40:18;;;;;;;3.40;1.00;;;;;;;21.77;41.72;100118.47;4211728;28;20239;-65
2022/07/07 10:43:24;;;;;;;2.97;0.80;;;;;;;21.72;41.95;100108.31;4206104;28;20241;-65
2022/07/07 10:45:52;;;;;;;3.10;0.90;;;;;;;21.32;42.21;100116.81;4193260;28;20236;-65
2022/07/07 10:48:39;;;;;;;2.47;0.70;;;;;;;21.38;41.81;100107.00;4204253;28;20255;-65
2022/07/07 10:51:16;;;;;;;4.30;0.90;;;;;;;21.62;40.30;100110.72;4201406;28;20235;-64
2022/07/07 10:54:08;;;;;;;2.90;1.00;;;;;;;21.97;39.87;100110.91;4209825;28;20235;-66
2022/07/07 10:56:55;;;;;;;3.37;1.00;;;;;;;22.38;35.11;100119.38;4195850;28;20277;-65
2022/07/07 10:59:24;;;;;;;4.07;0.80;;;;;;;22.18;36.22;100114.22;4188051;28;20786;-66
2022/07/07 11:02:02;;;;;;;4.57;0.80;;;;;;;22.40;35.30;100114.53;4199174;28;20304;-65
2022/07/07 11:04:42;;;;;;;2.50;0.80;;;;;;;22.38;35.99;100108.53;4204203;28;21861;-65
2022/07/07 11:07:19;;;;;;;2.50;0.80;;;;;;;22.51;36.76;100108.34;4199087;28;20453;-63
2022/07/07 11:09:59;;;;;;;3.60;0.77;;;;;;;22.34;34.56;100111.69;4191243;28;20238;-64
2022/07/07 11:12:37;;;;;;;2.10;0.60;;;;;;;22.33;34.41;100118.16;4205673;28;20596;-67
2022/07/07 11:15:22;;;;;;;1.97;0.60;;;;;;;22.14;34.31;100105.69;4211693;28;20237;-64
2022/07/07 11:18:09;;;;;;;3.53;0.87;;;;;;;21.97;34.72;100099.25;4213293;28;20255;-66
2022/07/07 11:20:53;;;;;;;4.57;1.10;;;;;;;21.82;35.04;100110.47;4239221;28;21232;-67
2022/07/07 11:23:20;;;;;;;4.00;0.67;;;;;;;21.64;37.30;100105.91;4211014;28;20669;-67
2022/07/07 11:25:47;;;;;;;3.43;0.87;;;;;;;21.67;36.43;100102.75;4198197;28;20672;-65
2022/07/07 11:28:13;;;;;;;6.87;1.10;;;;;;;21.81;35.32;100112.38;4194044;28;22917;-64
2022/07/07 11:30:40;;;;;;;4.70;0.83;;;;;;;21.54;36.61;100114.56;4181285;28;21095;-64
2022/07/07 11:33:08;;;;;;;2.23;0.90;;;;;;;21.50;37.38;100106.06;4182760;28;23650;-65